sensor_id;sensor_type;location;lat;lon;timestamp;temperature;humidity
23579;DHT22;11967;50.852;4.400;2023-09-18T00:00:46;24.60;99.90
23579;DHT22;11967;50.852;4.400;2023-09-18T00:03:12;24.60;99.90
23579;DHT22;11967;50.852;4.400;2023-09-18T00:05:37;24.60;99.90
23579;DHT22;11967;50.852;4.400;2023-09-18T00:08:03;24.50;99.90
23579;DHT22;11967;50.852;4.400;2023-09-18T00:10:29;24.50;99.90
23579;DHT22;11967;50.852;4.400;2023-09-18T00:12:56;24.50;99.90
23579;DHT22;11967;50.852;4.400;2023-09-18T00:15:22;24.50;99.90
23579;DHT22;11967;50.852;4.400;2023-09-18T00:17:48;24.50;99.90
23579;DHT22;11967;50.852;4.400;2023-09-18T00:20:14;24.40;99.90
23579;DHT22;11967;50.852;4.400;2023-09-18T00:22:42;24.40;99.90
23579;DHT22;11967;50.852;4.400;2023-09-18T00:25:08;24.50;99.90
23579;DHT22;11967;50.852;4.400;2023-09-18T00:27:34;24.40;99.90
23579;DHT22;11967;50.852;4.400;2023-09-18T00:30:03;24.40;99.90
23579;DHT22;11967;50.852;4.400;2023-09-18T00:32:30;24.40;99.90
23579;DHT22;11967;50.852;4.400;2023-09-18T00:34:56;24.50;99.90
23579;DHT22;11967;50.852;4.400;2023-09-18T00:37:21;24.50;99.90
23579;DHT22;11967;50.852;4.400;2023-09-18T00:39:47;24.50;99.90
23579;DHT22;11967;50.852;4.400;2023-09-18T00:42:14;24.50;99.90
23579;DHT22;11967;50.852;4.400;2023-09-18T00:44:43;24.50;99.90
23579;DHT22;11967;50.852;4.400;2023-09-18T00:47:09;24.50;99.90
23579;DHT22;11967;50.852;4.400;2023-09-18T00:49:37;24.40;99.90
23579;DHT22;11967;50.852;4.400;2023-09-18T00:52:04;24.40;99.90
23579;DHT22;11967;50.852;4.400;2023-09-18T00:54:31;24.40;99.90
23579;DHT22;11967;50.852;4.400;2023-09-18T00:56:58;24.30;99.90
23579;DHT22;11967;50.852;4.400;2023-09-18T00:59:25;24.10;99.90
23579;DHT22;11967;50.852;4.400;2023-09-18T01:01:51;24.10;99.90
23579;DHT22;11967;50.852;4.400;2023-09-18T01:04:17;24.00;99.90
23579;DHT22;11967;50.852;4.400;2023-09-18T01:06:43;24.10;99.90
23579;DHT22;11967;50.852;4.400;2023-09-18T01:09:09;24.00;99.90
23579;DHT22;11967;50.852;4.400;2023-09-18T01:11:54;24.10;99.90
23579;DHT22;11967;50.852;4.400;2023-09-18T01:14:30;24.10;99.90
23579;DHT22;11967;50.852;4.400;2023-09-18T01:16:58;24.00;99.90
23579;DHT22;11967;50.852;4.400;2023-09-18T01:19:39;23.90;99.90
23579;DHT22;11967;50.852;4.400;2023-09-18T01:22:07;23.90;99.90
23579;DHT22;11967;50.852;4.400;2023-09-18T01:24:34;23.90;99.90
23579;DHT22;11967;50.852;4.400;2023-09-18T01:27:00;23.90;99.90
23579;DHT22;11967;50.852;4.400;2023-09-18T01:29:26;23.80;99.90
23579;DHT22;11967;50.852;4.400;2023-09-18T01:31:53;23.80;99.90
23579;DHT22;11967;50.852;4.400;2023-09-18T01:34:21;23.80;99.90
23579;DHT22;11967;50.852;4.400;2023-09-18T01:36:51;23.80;99.90
23579;DHT22;11967;50.852;4.400;2023-09-18T01:39:17;23.80;99.90
23579;DHT22;11967;50.852;4.400;2023-09-18T01:41:45;23.80;99.90
23579;DHT22;11967;50.852;4.400;2023-09-18T01:44:11;23.80;99.90
23579;DHT22;11967;50.852;4.400;2023-09-18T01:46:37;23.70;99.90
23579;DHT22;11967;50.852;4.400;2023-09-18T01:49:03;23.70;99.90
23579;DHT22;11967;50.852;4.400;2023-09-18T01:51:29;23.70;99.90
23579;DHT22;11967;50.852;4.400;2023-09-18T01:53:56;23.70;99.90
23579;DHT22;11967;50.852;4.400;2023-09-18T01:56:22;23.70;99.90
23579;DHT22;11967;50.852;4.400;2023-09-18T01:58:48;23.70;99.90
23579;DHT22;11967;50.852;4.400;2023-09-18T02:01:14;23.60;99.90
23579;DHT22;11967;50.852;4.400;2023-09-18T02:03:39;23.70;99.90
23579;DHT22;11967;50.852;4.400;2023-09-18T02:06:08;23.70;99.90
23579;DHT22;11967;50.852;4.400;2023-09-18T02:08:34;23.70;99.90
23579;DHT22;11967;50.852;4.400;2023-09-18T02:11:00;23.70;99.90
23579;DHT22;11967;50.852;4.400;2023-09-18T02:13:26;23.70;99.90
23579;DHT22;11967;50.852;4.400;2023-09-18T02:15:52;23.70;99.90
23579;DHT22;11967;50.852;4.400;2023-09-18T02:18:18;23.80;99.90
23579;DHT22;11967;50.852;4.400;2023-09-18T02:20:44;23.70;99.90
23579;DHT22;11967;50.852;4.400;2023-09-18T02:23:13;23.60;99.90
23579;DHT22;11967;50.852;4.400;2023-09-18T02:25:38;23.60;99.90
23579;DHT22;11967;50.852;4.400;2023-09-18T02:28:06;23.50;99.90
23579;DHT22;11967;50.852;4.400;2023-09-18T02:30:32;23.50;99.90
23579;DHT22;11967;50.852;4.400;2023-09-18T02:32:57;23.50;99.90
23579;DHT22;11967;50.852;4.400;2023-09-18T02:35:23;23.60;99.90
23579;DHT22;11967;50.852;4.400;2023-09-18T02:37:49;23.50;99.90
23579;DHT22;11967;50.852;4.400;2023-09-18T02:40:14;23.40;99.90
23579;DHT22;11967;50.852;4.400;2023-09-18T02:42:40;23.40;99.90
23579;DHT22;11967;50.852;4.400;2023-09-18T02:45:06;23.50;99.90
23579;DHT22;11967;50.852;4.400;2023-09-18T02:47:33;23.50;99.90
23579;DHT22;11967;50.852;4.400;2023-09-18T02:49:59;23.40;99.90
23579;DHT22;11967;50.852;4.400;2023-09-18T02:52:25;23.40;99.90
23579;DHT22;11967;50.852;4.400;2023-09-18T02:54:50;23.40;99.90
23579;DHT22;11967;50.852;4.400;2023-09-18T02:57:16;23.40;99.90
23579;DHT22;11967;50.852;4.400;2023-09-18T02:59:41;23.50;99.90
23579;DHT22;11967;50.852;4.400;2023-09-18T03:02:07;23.40;99.90
23579;DHT22;11967;50.852;4.400;2023-09-18T03:04:33;23.40;99.90
23579;DHT22;11967;50.852;4.400;2023-09-18T03:06:58;23.40;99.90
23579;DHT22;11967;50.852;4.400;2023-09-18T03:09:24;23.30;99.90
23579;DHT22;11967;50.852;4.400;2023-09-18T03:11:49;23.40;99.90
23579;DHT22;11967;50.852;4.400;2023-09-18T03:14:15;23.40;99.90
23579;DHT22;11967;50.852;4.400;2023-09-18T03:16:41;23.40;99.90
23579;DHT22;11967;50.852;4.400;2023-09-18T03:19:06;23.50;99.90
23579;DHT22;11967;50.852;4.400;2023-09-18T03:21:32;23.40;99.90
23579;DHT22;11967;50.852;4.400;2023-09-18T03:24:01;23.50;99.90
23579;DHT22;11967;50.852;4.400;2023-09-18T03:26:26;23.40;99.90
23579;DHT22;11967;50.852;4.400;2023-09-18T03:28:53;23.40;99.90
23579;DHT22;11967;50.852;4.400;2023-09-18T03:31:18;23.50;99.90
23579;DHT22;11967;50.852;4.400;2023-09-18T03:33:44;23.40;99.90
23579;DHT22;11967;50.852;4.400;2023-09-18T03:36:09;23.50;99.90
23579;DHT22;11967;50.852;4.400;2023-09-18T03:38:39;23.40;99.90
23579;DHT22;11967;50.852;4.400;2023-09-18T03:41:05;23.40;99.90
23579;DHT22;11967;50.852;4.400;2023-09-18T03:43:31;23.40;99.90
23579;DHT22;11967;50.852;4.400;2023-09-18T03:46:06;23.40;99.90
23579;DHT22;11967;50.852;4.400;2023-09-18T03:48:33;23.40;99.90
23579;DHT22;11967;50.852;4.400;2023-09-18T03:51:06;23.30;99.90
23579;DHT22;11967;50.852;4.400;2023-09-18T03:53:35;23.30;99.90
23579;DHT22;11967;50.852;4.400;2023-09-18T03:56:01;23.30;99.90
23579;DHT22;11967;50.852;4.400;2023-09-18T03:58:27;23.20;99.90
23579;DHT22;11967;50.852;4.400;2023-09-18T04:00:53;23.20;99.90
23579;DHT22;11967;50.852;4.400;2023-09-18T04:03:18;23.10;99.90
23579;DHT22;11967;50.852;4.400;2023-09-18T04:05:44;23.10;99.90
23579;DHT22;11967;50.852;4.400;2023-09-18T04:08:10;23.10;99.90
23579;DHT22;11967;50.852;4.400;2023-09-18T04:10:36;23.00;99.90
23579;DHT22;11967;50.852;4.400;2023-09-18T04:13:02;23.00;99.90
23579;DHT22;11967;50.852;4.400;2023-09-18T04:15:28;22.90;99.90
23579;DHT22;11967;50.852;4.400;2023-09-18T04:17:56;23.00;99.90
23579;DHT22;11967;50.852;4.400;2023-09-18T04:20:21;22.90;99.90
23579;DHT22;11967;50.852;4.400;2023-09-18T04:23:18;22.90;99.90
23579;DHT22;11967;50.852;4.400;2023-09-18T04:25:45;22.80;99.90
23579;DHT22;11967;50.852;4.400;2023-09-18T04:28:15;22.90;99.90
23579;DHT22;11967;50.852;4.400;2023-09-18T04:30:41;22.90;99.90
23579;DHT22;11967;50.852;4.400;2023-09-18T04:33:07;22.80;99.90
23579;DHT22;11967;50.852;4.400;2023-09-18T04:35:32;22.80;99.90
23579;DHT22;11967;50.852;4.400;2023-09-18T04:37:59;22.70;99.90
23579;DHT22;11967;50.852;4.400;2023-09-18T04:40:25;22.70;99.90
23579;DHT22;11967;50.852;4.400;2023-09-18T04:42:57;22.70;99.90
23579;DHT22;11967;50.852;4.400;2023-09-18T04:45:26;22.70;99.90
23579;DHT22;11967;50.852;4.400;2023-09-18T04:47:53;22.60;99.90
23579;DHT22;11967;50.852;4.400;2023-09-18T04:50:19;22.70;99.90
23579;DHT22;11967;50.852;4.400;2023-09-18T04:52:45;22.50;99.90
23579;DHT22;11967;50.852;4.400;2023-09-18T04:55:11;22.50;99.90
23579;DHT22;11967;50.852;4.400;2023-09-18T04:57:38;22.50;99.90
23579;DHT22;11967;50.852;4.400;2023-09-18T05:00:04;22.40;99.90
23579;DHT22;11967;50.852;4.400;2023-09-18T05:02:38;22.30;99.90
23579;DHT22;11967;50.852;4.400;2023-09-18T05:05:05;22.30;99.90
23579;DHT22;11967;50.852;4.400;2023-09-18T05:07:34;22.20;99.90
23579;DHT22;11967;50.852;4.400;2023-09-18T05:10:01;22.10;99.90
23579;DHT22;11967;50.852;4.400;2023-09-18T05:12:26;22.10;99.90
23579;DHT22;11967;50.852;4.400;2023-09-18T05:14:52;22.10;99.90
23579;DHT22;11967;50.852;4.400;2023-09-18T05:17:18;22.10;99.90
23579;DHT22;11967;50.852;4.400;2023-09-18T05:19:44;22.00;99.90
23579;DHT22;11967;50.852;4.400;2023-09-18T05:22:10;22.00;99.90
23579;DHT22;11967;50.852;4.400;2023-09-18T05:24:37;21.90;99.90
23579;DHT22;11967;50.852;4.400;2023-09-18T05:27:03;22.00;99.90
23579;DHT22;11967;50.852;4.400;2023-09-18T05:29:31;22.00;99.90
23579;DHT22;11967;50.852;4.400;2023-09-18T05:31:57;22.00;99.90
23579;DHT22;11967;50.852;4.400;2023-09-18T05:34:23;22.00;99.90
23579;DHT22;11967;50.852;4.400;2023-09-18T05:36:49;21.80;99.90
23579;DHT22;11967;50.852;4.400;2023-09-18T05:39:15;21.90;99.90
23579;DHT22;11967;50.852;4.400;2023-09-18T05:41:44;22.00;99.90
23579;DHT22;11967;50.852;4.400;2023-09-18T05:44:09;22.10;99.90
23579;DHT22;11967;50.852;4.400;2023-09-18T05:46:35;22.00;99.90
23579;DHT22;11967;50.852;4.400;2023-09-18T05:49:02;21.90;99.90
23579;DHT22;11967;50.852;4.400;2023-09-18T05:51:28;21.90;99.90
23579;DHT22;11967;50.852;4.400;2023-09-18T05:53:54;22.00;99.90
23579;DHT22;11967;50.852;4.400;2023-09-18T05:56:20;22.00;99.90
23579;DHT22;11967;50.852;4.400;2023-09-18T05:58:46;22.00;99.90
23579;DHT22;11967;50.852;4.400;2023-09-18T06:01:13;22.00;99.90
23579;DHT22;11967;50.852;4.400;2023-09-18T06:03:38;22.10;99.90
23579;DHT22;11967;50.852;4.400;2023-09-18T06:06:07;22.10;99.90
23579;DHT22;11967;50.852;4.400;2023-09-18T06:08:34;22.00;99.90
23579;DHT22;11967;50.852;4.400;2023-09-18T06:11:00;22.00;99.90
23579;DHT22;11967;50.852;4.400;2023-09-18T06:13:26;22.00;99.90
23579;DHT22;11967;50.852;4.400;2023-09-18T06:15:53;21.90;99.90
23579;DHT22;11967;50.852;4.400;2023-09-18T06:18:20;21.90;99.90
23579;DHT22;11967;50.852;4.400;2023-09-18T06:20:47;21.80;99.90
23579;DHT22;11967;50.852;4.400;2023-09-18T06:23:12;21.80;99.90
23579;DHT22;11967;50.852;4.400;2023-09-18T06:25:41;21.90;99.90
23579;DHT22;11967;50.852;4.400;2023-09-18T06:28:07;21.90;99.90
23579;DHT22;11967;50.852;4.400;2023-09-18T06:30:38;21.90;99.90
23579;DHT22;11967;50.852;4.400;2023-09-18T06:33:04;21.90;99.90
23579;DHT22;11967;50.852;4.400;2023-09-18T06:35:30;21.90;99.90
23579;DHT22;11967;50.852;4.400;2023-09-18T06:37:56;22.00;99.90
23579;DHT22;11967;50.852;4.400;2023-09-18T06:40:24;22.00;99.90
23579;DHT22;11967;50.852;4.400;2023-09-18T06:42:50;22.00;99.90
23579;DHT22;11967;50.852;4.400;2023-09-18T06:45:17;21.90;99.90
23579;DHT22;11967;50.852;4.400;2023-09-18T06:47:43;21.80;99.90
23579;DHT22;11967;50.852;4.400;2023-09-18T06:50:08;21.70;99.90
23579;DHT22;11967;50.852;4.400;2023-09-18T06:52:35;21.80;99.90
23579;DHT22;11967;50.852;4.400;2023-09-18T06:55:00;21.70;99.90
23579;DHT22;11967;50.852;4.400;2023-09-18T06:57:26;21.70;99.90
23579;DHT22;11967;50.852;4.400;2023-09-18T06:59:53;21.60;99.90
23579;DHT22;11967;50.852;4.400;2023-09-18T07:02:18;21.70;99.90
23579;DHT22;11967;50.852;4.400;2023-09-18T07:04:44;21.70;99.90
23579;DHT22;11967;50.852;4.400;2023-09-18T07:07:12;21.70;99.90
23579;DHT22;11967;50.852;4.400;2023-09-18T07:09:38;21.70;99.90
23579;DHT22;11967;50.852;4.400;2023-09-18T07:12:05;21.60;99.90
23579;DHT22;11967;50.852;4.400;2023-09-18T07:14:31;21.60;99.90
23579;DHT22;11967;50.852;4.400;2023-09-18T07:16:57;21.60;99.90
23579;DHT22;11967;50.852;4.400;2023-09-18T07:19:22;21.50;99.90
23579;DHT22;11967;50.852;4.400;2023-09-18T07:21:48;21.60;99.90
23579;DHT22;11967;50.852;4.400;2023-09-18T07:24:14;21.50;99.90
23579;DHT22;11967;50.852;4.400;2023-09-18T07:26:44;21.20;99.90
23579;DHT22;11967;50.852;4.400;2023-09-18T07:29:10;21.10;99.90
23579;DHT22;11967;50.852;4.400;2023-09-18T07:31:36;21.10;99.90
23579;DHT22;11967;50.852;4.400;2023-09-18T07:34:02;21.00;99.90
23579;DHT22;11967;50.852;4.400;2023-09-18T07:36:29;21.00;99.90
23579;DHT22;11967;50.852;4.400;2023-09-18T07:38:55;21.10;99.90
23579;DHT22;11967;50.852;4.400;2023-09-18T07:41:22;21.30;99.90
23579;DHT22;11967;50.852;4.400;2023-09-18T07:43:48;21.40;99.90
23579;DHT22;11967;50.852;4.400;2023-09-18T07:46:13;21.60;99.90
23579;DHT22;11967;50.852;4.400;2023-09-18T07:48:39;21.70;99.90
23579;DHT22;11967;50.852;4.400;2023-09-18T07:51:05;21.80;99.90
23579;DHT22;11967;50.852;4.400;2023-09-18T07:53:31;21.80;99.90
23579;DHT22;11967;50.852;4.400;2023-09-18T07:55:58;21.90;99.90
23579;DHT22;11967;50.852;4.400;2023-09-18T07:58:25;21.80;99.90
23579;DHT22;11967;50.852;4.400;2023-09-18T08:00:55;21.90;99.90
23579;DHT22;11967;50.852;4.400;2023-09-18T08:03:23;21.90;99.90
23579;DHT22;11967;50.852;4.400;2023-09-18T08:05:52;22.00;99.90
23579;DHT22;11967;50.852;4.400;2023-09-18T08:08:20;22.00;99.90
23579;DHT22;11967;50.852;4.400;2023-09-18T08:10:46;22.00;99.90
23579;DHT22;11967;50.852;4.400;2023-09-18T08:13:13;22.10;99.90
23579;DHT22;11967;50.852;4.400;2023-09-18T08:15:39;22.00;99.90
23579;DHT22;11967;50.852;4.400;2023-09-18T08:18:04;22.10;99.90
23579;DHT22;11967;50.852;4.400;2023-09-18T08:20:30;22.20;99.90
23579;DHT22;11967;50.852;4.400;2023-09-18T08:22:56;22.20;99.90
23579;DHT22;11967;50.852;4.400;2023-09-18T08:25:22;22.10;99.90
23579;DHT22;11967;50.852;4.400;2023-09-18T08:27:47;22.10;99.90
23579;DHT22;11967;50.852;4.400;2023-09-18T08:30:14;22.00;99.90
23579;DHT22;11967;50.852;4.400;2023-09-18T08:32:42;22.10;99.90
23579;DHT22;11967;50.852;4.400;2023-09-18T08:35:08;22.20;99.90
23579;DHT22;11967;50.852;4.400;2023-09-18T08:37:34;22.20;99.90
23579;DHT22;11967;50.852;4.400;2023-09-18T08:40:00;22.30;99.90
23579;DHT22;11967;50.852;4.400;2023-09-18T08:42:30;22.30;99.90
23579;DHT22;11967;50.852;4.400;2023-09-18T08:44:59;22.40;99.90
23579;DHT22;11967;50.852;4.400;2023-09-18T08:47:27;22.30;99.90
23579;DHT22;11967;50.852;4.400;2023-09-18T08:49:54;22.30;99.90
23579;DHT22;11967;50.852;4.400;2023-09-18T08:52:21;22.30;99.90
23579;DHT22;11967;50.852;4.400;2023-09-18T08:54:47;22.30;99.90
23579;DHT22;11967;50.852;4.400;2023-09-18T08:57:14;22.30;99.90
23579;DHT22;11967;50.852;4.400;2023-09-18T08:59:40;22.40;99.90
23579;DHT22;11967;50.852;4.400;2023-09-18T09:02:06;22.50;99.90
23579;DHT22;11967;50.852;4.400;2023-09-18T09:04:32;22.60;99.90
23579;DHT22;11967;50.852;4.400;2023-09-18T09:06:58;22.60;99.90
23579;DHT22;11967;50.852;4.400;2023-09-18T09:09:25;22.60;99.90
23579;DHT22;11967;50.852;4.400;2023-09-18T09:11:52;22.90;99.90
23579;DHT22;11967;50.852;4.400;2023-09-18T09:14:18;22.90;99.90
23579;DHT22;11967;50.852;4.400;2023-09-18T09:16:51;23.00;99.90
23579;DHT22;11967;50.852;4.400;2023-09-18T09:19:17;23.00;99.90
23579;DHT22;11967;50.852;4.400;2023-09-18T09:21:44;22.80;99.90
23579;DHT22;11967;50.852;4.400;2023-09-18T09:24:11;22.70;99.90
23579;DHT22;11967;50.852;4.400;2023-09-18T09:26:40;22.60;99.90
23579;DHT22;11967;50.852;4.400;2023-09-18T09:29:19;22.50;99.90
23579;DHT22;11967;50.852;4.400;2023-09-18T09:31:46;22.50;99.90
23579;DHT22;11967;50.852;4.400;2023-09-18T09:34:12;22.40;99.90
23579;DHT22;11967;50.852;4.400;2023-09-18T09:36:56;22.40;99.90
23579;DHT22;11967;50.852;4.400;2023-09-18T09:39:22;22.40;99.90
23579;DHT22;11967;50.852;4.400;2023-09-18T09:41:51;22.50;99.90
23579;DHT22;11967;50.852;4.400;2023-09-18T09:44:17;22.60;99.90
23579;DHT22;11967;50.852;4.400;2023-09-18T09:46:48;22.60;99.90
23579;DHT22;11967;50.852;4.400;2023-09-18T09:49:14;22.70;99.90
23579;DHT22;11967;50.852;4.400;2023-09-18T09:51:43;22.70;99.90
23579;DHT22;11967;50.852;4.400;2023-09-18T09:54:09;22.60;99.90
23579;DHT22;11967;50.852;4.400;2023-09-18T09:56:47;22.50;99.90
23579;DHT22;11967;50.852;4.400;2023-09-18T09:59:17;22.40;99.90
23579;DHT22;11967;50.852;4.400;2023-09-18T10:01:47;22.40;99.90
23579;DHT22;11967;50.852;4.400;2023-09-18T10:04:16;22.50;99.90
23579;DHT22;11967;50.852;4.400;2023-09-18T10:06:55;22.40;99.90
23579;DHT22;11967;50.852;4.400;2023-09-18T10:09:22;22.40;99.90
23579;DHT22;11967;50.852;4.400;2023-09-18T10:11:54;22.40;99.90
23579;DHT22;11967;50.852;4.400;2023-09-18T10:14:32;22.50;99.90
23579;DHT22;11967;50.852;4.400;2023-09-18T10:17:09;22.60;99.90
23579;DHT22;11967;50.852;4.400;2023-09-18T10:19:49;22.50;99.90
23579;DHT22;11967;50.852;4.400;2023-09-18T10:22:30;22.40;99.90
23579;DHT22;11967;50.852;4.400;2023-09-18T10:25:23;22.40;99.90
23579;DHT22;11967;50.852;4.400;2023-09-18T10:27:51;22.50;99.90
23579;DHT22;11967;50.852;4.400;2023-09-18T10:30:24;22.60;99.90
23579;DHT22;11967;50.852;4.400;2023-09-18T10:32:51;22.60;99.90
23579;DHT22;11967;50.852;4.400;2023-09-18T10:35:17;22.40;99.90
23579;DHT22;11967;50.852;4.400;2023-09-18T10:37:46;22.30;99.90
23579;DHT22;11967;50.852;4.400;2023-09-18T10:40:13;22.20;99.90
23579;DHT22;11967;50.852;4.400;2023-09-18T10:42:40;22.00;99.90
23579;DHT22;11967;50.852;4.400;2023-09-18T10:45:11;21.90;99.90
23579;DHT22;11967;50.852;4.400;2023-09-18T10:47:39;21.90;99.90
23579;DHT22;11967;50.852;4.400;2023-09-18T10:50:06;22.00;99.90
23579;DHT22;11967;50.852;4.400;2023-09-18T10:52:35;22.00;99.90
23579;DHT22;11967;50.852;4.400;2023-09-18T10:55:01;22.00;99.90
23579;DHT22;11967;50.852;4.400;2023-09-18T10:57:34;22.10;99.90
23579;DHT22;11967;50.852;4.400;2023-09-18T11:00:01;22.20;99.90
23579;DHT22;11967;50.852;4.400;2023-09-18T11:02:38;22.20;99.90
23579;DHT22;11967;50.852;4.400;2023-09-18T11:05:05;22.40;99.90
23579;DHT22;11967;50.852;4.400;2023-09-18T11:07:30;22.60;99.90
23579;DHT22;11967;50.852;4.400;2023-09-18T11:09:56;22.70;99.90
23579;DHT22;11967;50.852;4.400;2023-09-18T11:12:42;22.90;99.90
23579;DHT22;11967;50.852;4.400;2023-09-18T11:15:09;23.00;99.90
23579;DHT22;11967;50.852;4.400;2023-09-18T11:17:59;23.10;99.90
23579;DHT22;11967;50.852;4.400;2023-09-18T11:20:25;23.30;99.90
23579;DHT22;11967;50.852;4.400;2023-09-18T11:25:40;23.60;99.90
23579;DHT22;11967;50.852;4.400;2023-09-18T11:28:08;23.70;99.90
23579;DHT22;11967;50.852;4.400;2023-09-18T11:30:38;23.70;99.90
23579;DHT22;11967;50.852;4.400;2023-09-18T11:33:13;23.60;99.90
23579;DHT22;11967;50.852;4.400;2023-09-18T11:35:51;23.60;99.90
23579;DHT22;11967;50.852;4.400;2023-09-18T11:38:18;23.50;99.90
23579;DHT22;11967;50.852;4.400;2023-09-18T11:40:43;23.30;99.90
23579;DHT22;11967;50.852;4.400;2023-09-18T11:43:21;23.30;99.90
23579;DHT22;11967;50.852;4.400;2023-09-18T11:45:54;23.20;99.90
23579;DHT22;11967;50.852;4.400;2023-09-18T11:48:25;23.40;99.90
23579;DHT22;11967;50.852;4.400;2023-09-18T11:50:53;23.40;99.90
23579;DHT22;11967;50.852;4.400;2023-09-18T11:53:20;23.60;99.90
23579;DHT22;11967;50.852;4.400;2023-09-18T11:55:47;23.70;99.90
23579;DHT22;11967;50.852;4.400;2023-09-18T11:58:13;23.80;99.90
23579;DHT22;11967;50.852;4.400;2023-09-18T12:00:40;23.80;99.90
23579;DHT22;11967;50.852;4.400;2023-09-18T12:03:17;23.70;99.90
23579;DHT22;11967;50.852;4.400;2023-09-18T12:05:57;23.70;99.90
23579;DHT22;11967;50.852;4.400;2023-09-18T12:08:23;23.70;99.90
23579;DHT22;11967;50.852;4.400;2023-09-18T12:10:53;23.70;99.90
23579;DHT22;11967;50.852;4.400;2023-09-18T12:13:19;23.80;99.90
23579;DHT22;11967;50.852;4.400;2023-09-18T12:15:44;24.00;99.90
23579;DHT22;11967;50.852;4.400;2023-09-18T12:18:11;24.10;99.90
23579;DHT22;11967;50.852;4.400;2023-09-18T12:20:49;24.20;99.90
23579;DHT22;11967;50.852;4.400;2023-09-18T12:23:16;24.20;99.90
23579;DHT22;11967;50.852;4.400;2023-09-18T12:25:50;24.30;99.90
23579;DHT22;11967;50.852;4.400;2023-09-18T12:28:16;24.40;99.90
23579;DHT22;11967;50.852;4.400;2023-09-18T12:30:45;24.40;99.90
23579;DHT22;11967;50.852;4.400;2023-09-18T12:33:12;24.40;99.90
23579;DHT22;11967;50.852;4.400;2023-09-18T12:35:40;24.50;99.90
23579;DHT22;11967;50.852;4.400;2023-09-18T12:38:17;24.60;99.90
23579;DHT22;11967;50.852;4.400;2023-09-18T12:40:45;24.70;99.90
23579;DHT22;11967;50.852;4.400;2023-09-18T12:43:12;24.60;99.90
23579;DHT22;11967;50.852;4.400;2023-09-18T12:45:41;24.60;99.90
23579;DHT22;11967;50.852;4.400;2023-09-18T12:48:08;24.70;99.90
23579;DHT22;11967;50.852;4.400;2023-09-18T12:50:33;24.70;99.90
23579;DHT22;11967;50.852;4.400;2023-09-18T12:53:26;24.70;99.90
23579;DHT22;11967;50.852;4.400;2023-09-18T12:55:52;24.90;99.90
23579;DHT22;11967;50.852;4.400;2023-09-18T12:58:21;24.90;99.90
23579;DHT22;11967;50.852;4.400;2023-09-18T13:00:49;24.90;99.90
23579;DHT22;11967;50.852;4.400;2023-09-18T13:03:15;25.00;99.90
23579;DHT22;11967;50.852;4.400;2023-09-18T13:05:41;24.90;99.90
23579;DHT22;11967;50.852;4.400;2023-09-18T13:08:07;24.80;99.90
23579;DHT22;11967;50.852;4.400;2023-09-18T13:10:46;24.80;99.90
23579;DHT22;11967;50.852;4.400;2023-09-18T13:13:19;24.90;99.90
23579;DHT22;11967;50.852;4.400;2023-09-18T13:15:47;24.80;99.90
23579;DHT22;11967;50.852;4.400;2023-09-18T13:18:14;24.80;99.90
23579;DHT22;11967;50.852;4.400;2023-09-18T13:20:41;25.00;99.90
23579;DHT22;11967;50.852;4.400;2023-09-18T13:23:07;25.00;99.90
23579;DHT22;11967;50.852;4.400;2023-09-18T13:25:35;25.00;99.90
23579;DHT22;11967;50.852;4.400;2023-09-18T13:28:03;25.00;99.90
23579;DHT22;11967;50.852;4.400;2023-09-18T13:30:31;25.00;99.90
23579;DHT22;11967;50.852;4.400;2023-09-18T13:33:09;25.00;99.90
23579;DHT22;11967;50.852;4.400;2023-09-18T13:35:36;24.90;99.90
23579;DHT22;11967;50.852;4.400;2023-09-18T13:38:03;24.80;99.90
23579;DHT22;11967;50.852;4.400;2023-09-18T13:40:34;24.90;99.90
23579;DHT22;11967;50.852;4.400;2023-09-18T13:43:01;24.90;99.90
23579;DHT22;11967;50.852;4.400;2023-09-18T13:45:31;25.00;99.90
23579;DHT22;11967;50.852;4.400;2023-09-18T13:47:57;24.90;99.90
23579;DHT22;11967;50.852;4.400;2023-09-18T13:50:22;24.80;99.90
23579;DHT22;11967;50.852;4.400;2023-09-18T13:52:48;24.80;99.90
23579;DHT22;11967;50.852;4.400;2023-09-18T13:55:14;24.80;99.90
23579;DHT22;11967;50.852;4.400;2023-09-18T13:57:39;24.90;99.90
23579;DHT22;11967;50.852;4.400;2023-09-18T14:00:08;24.80;99.90
23579;DHT22;11967;50.852;4.400;2023-09-18T14:02:36;24.70;99.90
23579;DHT22;11967;50.852;4.400;2023-09-18T14:05:02;24.70;99.90
23579;DHT22;11967;50.852;4.400;2023-09-18T14:07:29;24.60;99.90
23579;DHT22;11967;50.852;4.400;2023-09-18T14:09:54;24.60;99.90
23579;DHT22;11967;50.852;4.400;2023-09-18T14:12:20;24.60;99.90
23579;DHT22;11967;50.852;4.400;2023-09-18T14:14:46;24.50;99.90
23579;DHT22;11967;50.852;4.400;2023-09-18T14:17:12;24.40;99.90
23579;DHT22;11967;50.852;4.400;2023-09-18T14:19:38;24.30;99.90
23579;DHT22;11967;50.852;4.400;2023-09-18T14:22:05;24.20;99.90
23579;DHT22;11967;50.852;4.400;2023-09-18T14:24:31;24.20;99.90
23579;DHT22;11967;50.852;4.400;2023-09-18T14:27:00;24.10;99.90
23579;DHT22;11967;50.852;4.400;2023-09-18T14:29:26;24.10;99.90
23579;DHT22;11967;50.852;4.400;2023-09-18T14:31:52;24.10;99.90
23579;DHT22;11967;50.852;4.400;2023-09-18T14:34:18;24.00;99.90
23579;DHT22;11967;50.852;4.400;2023-09-18T14:36:44;23.90;99.90
23579;DHT22;11967;50.852;4.400;2023-09-18T14:39:10;23.90;99.90
23579;DHT22;11967;50.852;4.400;2023-09-18T14:41:37;24.00;99.90
23579;DHT22;11967;50.852;4.400;2023-09-18T14:44:04;23.90;99.90
23579;DHT22;11967;50.852;4.400;2023-09-18T14:46:33;23.40;99.90
23579;DHT22;11967;50.852;4.400;2023-09-18T14:48:59;22.90;99.90
23579;DHT22;11967;50.852;4.400;2023-09-18T14:51:28;22.60;99.90
23579;DHT22;11967;50.852;4.400;2023-09-18T14:53:55;22.30;99.90
23579;DHT22;11967;50.852;4.400;2023-09-18T14:56:20;22.30;99.90
23579;DHT22;11967;50.852;4.400;2023-09-18T14:58:46;22.10;99.90
23579;DHT22;11967;50.852;4.400;2023-09-18T15:01:12;22.00;99.90
23579;DHT22;11967;50.852;4.400;2023-09-18T15:03:39;21.90;99.90
23579;DHT22;11967;50.852;4.400;2023-09-18T15:06:05;21.90;99.90
23579;DHT22;11967;50.852;4.400;2023-09-18T15:08:33;21.90;99.90
23579;DHT22;11967;50.852;4.400;2023-09-18T15:10:59;22.00;99.90
23579;DHT22;11967;50.852;4.400;2023-09-18T15:13:25;22.00;99.90
23579;DHT22;11967;50.852;4.400;2023-09-18T15:15:50;22.00;99.90
23579;DHT22;11967;50.852;4.400;2023-09-18T15:18:16;22.00;99.90
23579;DHT22;11967;50.852;4.400;2023-09-18T15:20:42;22.00;99.90
23579;DHT22;11967;50.852;4.400;2023-09-18T15:23:08;22.10;99.90
23579;DHT22;11967;50.852;4.400;2023-09-18T15:25:35;22.20;99.90
23579;DHT22;11967;50.852;4.400;2023-09-18T15:28:06;22.20;99.90
23579;DHT22;11967;50.852;4.400;2023-09-18T15:30:32;22.40;99.90
23579;DHT22;11967;50.852;4.400;2023-09-18T15:32:58;22.40;99.90
23579;DHT22;11967;50.852;4.400;2023-09-18T15:35:25;22.40;99.90